createdAt,value
2022-08-02T00:00:41.328Z,19.90
2022-08-02T00:03:09.381Z,19.90
2022-08-02T00:05:37.363Z,19.90
2022-08-02T00:08:06.962Z,19.80
2022-08-02T00:10:35.209Z,19.90
2022-08-02T00:13:03.218Z,19.90
2022-08-02T00:15:31.121Z,19.80
2022-08-02T00:17:59.187Z,19.80
2022-08-02T00:20:27.130Z,19.80
2022-08-02T00:22:55.122Z,19.80
2022-08-02T00:25:24.458Z,19.80
2022-08-02T00:27:52.585Z,19.80
2022-08-02T00:30:20.752Z,19.80
2022-08-02T00:32:48.725Z,19.70
2022-08-02T00:35:16.647Z,19.70
2022-08-02T00:37:44.896Z,19.70
2022-08-02T00:40:13.713Z,19.70
2022-08-02T00:42:44.249Z,19.70
2022-08-02T00:45:12.859Z,19.70
2022-08-02T00:47:42.093Z,19.70
2022-08-02T00:50:11.007Z,19.70
2022-08-02T00:52:38.993Z,19.70
2022-08-02T00:55:07.769Z,19.70
2022-08-02T00:57:37.020Z,19.70
2022-08-02T01:00:08.260Z,19.70
2022-08-02T01:02:36.289Z,19.60
2022-08-02T01:05:04.609Z,19.50
2022-08-02T01:07:32.555Z,19.50
2022-08-02T01:10:01.006Z,19.50
2022-08-02T01:12:29.298Z,19.40
2022-08-02T01:15:01.267Z,19.40
2022-08-02T01:17:37.077Z,19.50
2022-08-02T01:20:13.235Z,19.30
2022-08-02T01:23:01.953Z,19.40
2022-08-02T01:25:46.136Z,19.30
2022-08-02T01:28:34.174Z,19.30
2022-08-02T01:31:07.707Z,19.30
2022-08-02T01:33:41.153Z,19.30
2022-08-02T01:36:12.911Z,19.20
2022-08-02T01:38:46.128Z,19.20
2022-08-02T01:41:19.304Z,19.20
2022-08-02T01:43:51.074Z,19.20
2022-08-02T01:46:21.404Z,19.10
2022-08-02T01:48:51.496Z,19.10
2022-08-02T01:51:42.991Z,19.10
2022-08-02T01:54:14.427Z,19.00
2022-08-02T01:56:44.087Z,19.10
2022-08-02T01:59:17.884Z,19.10
2022-08-02T02:01:49.190Z,19.00
2022-08-02T02:04:18.354Z,19.00
2022-08-02T02:06:47.549Z,19.00
2022-08-02T02:09:16.748Z,18.90
2022-08-02T02:12:10.073Z,18.90
2022-08-02T02:14:37.229Z,18.90
2022-08-02T02:17:06.674Z,18.90
2022-08-02T02:19:37.244Z,18.80
2022-08-02T02:22:05.400Z,18.80
2022-08-02T02:24:35.295Z,18.80
2022-08-02T02:27:06.564Z,18.80
2022-08-02T02:29:36.972Z,18.80
2022-08-02T02:32:07.330Z,18.80
2022-08-02T02:34:39.084Z,18.80
2022-08-02T02:37:14.564Z,18.80
2022-08-02T02:39:45.046Z,18.80
2022-08-02T02:42:15.860Z,18.70
2022-08-02T02:44:47.375Z,18.70
2022-08-02T02:47:16.955Z,18.70
2022-08-02T02:49:47.594Z,18.70
2022-08-02T02:52:18.090Z,18.60
2022-08-02T02:54:49.846Z,18.60
2022-08-02T02:57:18.284Z,18.60
2022-08-02T02:59:49.260Z,18.80
2022-08-02T03:02:19.523Z,18.70
2022-08-02T03:04:55.652Z,18.70
2022-08-02T03:07:26.136Z,18.70
2022-08-02T03:09:55.067Z,18.70
2022-08-02T03:12:30.581Z,18.70
2022-08-02T03:15:03.622Z,18.70
2022-08-02T03:17:42.533Z,18.70
2022-08-02T03:20:13.554Z,18.60
2022-08-02T03:22:42.081Z,18.60
2022-08-02T03:25:11.091Z,18.60
2022-08-02T03:27:39.399Z,18.60
2022-08-02T03:30:11.596Z,18.60
2022-08-02T03:32:41.721Z,18.60
2022-08-02T03:35:12.622Z,18.60
2022-08-02T03:37:41.957Z,18.60
2022-08-02T03:40:12.495Z,18.60
2022-08-02T03:42:41.594Z,18.60
2022-08-02T03:45:15.789Z,18.60
2022-08-02T03:47:44.826Z,18.60
2022-08-02T03:50:13.893Z,18.60
2022-08-02T03:52:43.605Z,18.60
2022-08-02T03:55:13.771Z,18.70
2022-08-02T03:57:45.248Z,18.60
2022-08-02T04:00:22.567Z,18.60
2022-08-02T04:02:51.243Z,18.80
2022-08-02T04:05:19.359Z,18.60
2022-08-02T04:08:02.753Z,18.60
2022-08-02T04:10:57.744Z,18.70
2022-08-02T04:13:35.966Z,18.60
2022-08-02T04:16:13.493Z,18.60
2022-08-02T04:18:46.343Z,18.60
2022-08-02T04:21:18.277Z,18.60
2022-08-02T04:23:48.563Z,18.60
2022-08-02T04:26:17.830Z,18.60
2022-08-02T04:28:46.716Z,18.50
2022-08-02T04:31:17.701Z,18.70
2022-08-02T04:33:46.276Z,18.60
2022-08-02T04:36:15.292Z,18.60
2022-08-02T04:38:59.168Z,18.50
2022-08-02T04:41:40.987Z,18.50
2022-08-02T04:44:13.197Z,18.60
2022-08-02T04:46:44.128Z,18.70
2022-08-02T04:49:12.756Z,18.50
2022-08-02T04:51:43.552Z,18.50
2022-08-02T04:54:12.703Z,18.50
2022-08-02T04:56:41.074Z,18.60
2022-08-02T04:59:09.630Z,18.60
2022-08-02T05:01:37.643Z,18.60
2022-08-02T05:04:07.252Z,18.60
2022-08-02T05:06:35.359Z,18.60
2022-08-02T05:09:03.284Z,18.70
2022-08-02T05:11:36.564Z,18.80
2022-08-02T05:14:05.372Z,18.90
2022-08-02T05:16:33.550Z,18.90
2022-08-02T05:19:02.291Z,19.00
2022-08-02T05:21:32.735Z,19.10
2022-08-02T05:24:00.694Z,19.20
2022-08-02T05:26:28.701Z,19.20
2022-08-02T05:28:56.735Z,19.30
2022-08-02T05:31:24.912Z,19.40
2022-08-02T05:33:53.050Z,19.50
2022-08-02T05:36:21.601Z,19.60
2022-08-02T05:38:52.877Z,19.60
2022-08-02T05:41:27.693Z,19.70
2022-08-02T05:43:55.720Z,19.70
2022-08-02T05:46:24.318Z,19.80
2022-08-02T05:48:52.293Z,19.80
2022-08-02T05:51:24.545Z,19.80
2022-08-02T05:53:59.373Z,19.90
2022-08-02T05:56:35.849Z,20.00
2022-08-02T05:59:06.183Z,20.10
2022-08-02T06:01:36.858Z,20.20
2022-08-02T06:04:08.435Z,20.30
2022-08-02T06:06:37.307Z,20.50
2022-08-02T06:09:13.949Z,20.50
2022-08-02T06:12:01.911Z,20.40
2022-08-02T06:14:40.923Z,20.50
2022-08-02T06:17:09.678Z,20.60
2022-08-02T06:19:51.510Z,20.60
2022-08-02T06:22:33.962Z,20.60
2022-08-02T06:25:48.302Z,20.50
2022-08-02T06:28:10.005Z,20.60
2022-08-02T06:30:40.827Z,20.60
2022-08-02T06:33:09.013Z,20.70
2022-08-02T06:35:45.325Z,20.70
2022-08-02T06:38:19.982Z,20.80
2022-08-02T06:40:54.631Z,20.80
2022-08-02T06:43:28.324Z,20.90
2022-08-02T06:45:56.348Z,20.80
2022-08-02T06:48:44.389Z,20.80
2022-08-02T06:51:12.662Z,20.90
2022-08-02T06:53:41.396Z,20.90
2022-08-02T06:56:11.441Z,21.00
2022-08-02T06:58:41.047Z,21.10
2022-08-02T07:01:09.893Z,21.10
2022-08-02T07:03:39.179Z,21.30
2022-08-02T07:06:09.817Z,21.40
2022-08-02T07:08:39.035Z,21.30
2022-08-02T07:11:07.811Z,21.30
2022-08-02T07:13:40.011Z,21.50
2022-08-02T07:16:11.604Z,21.50
2022-08-02T07:18:39.729Z,21.50
2022-08-02T07:21:08.707Z,21.60
2022-08-02T07:23:37.322Z,21.60
2022-08-02T07:26:06.036Z,21.80
2022-08-02T07:28:34.046Z,21.80
2022-08-02T07:31:03.485Z,22.00
2022-08-02T07:33:38.823Z,22.00
2022-08-02T07:36:09.875Z,21.90
2022-08-02T07:38:50.527Z,21.90
2022-08-02T07:41:18.706Z,22.00
2022-08-02T07:43:47.180Z,22.20
2022-08-02T07:46:16.587Z,22.20
2022-08-02T07:48:44.558Z,22.30
2022-08-02T07:51:17.138Z,22.50
2022-08-02T07:53:50.787Z,22.60
2022-08-02T07:56:19.890Z,22.60
2022-08-02T07:58:47.849Z,22.70
2022-08-02T08:01:17.403Z,22.70
2022-08-02T08:03:45.792Z,22.80
2022-08-02T08:06:13.758Z,22.90
2022-08-02T08:08:41.676Z,22.90
2022-08-02T08:11:09.695Z,22.90
2022-08-02T08:13:37.730Z,23.00
2022-08-02T08:16:06.421Z,23.10
2022-08-02T08:18:36.429Z,23.10
2022-08-02T08:21:04.701Z,23.10
2022-08-02T08:23:32.735Z,23.10
2022-08-02T08:26:00.760Z,23.20
2022-08-02T08:28:31.923Z,23.40
2022-08-02T08:31:00.112Z,23.20
2022-08-02T08:33:28.200Z,23.50
2022-08-02T08:35:58.176Z,23.50
2022-08-02T08:38:26.209Z,23.60
2022-08-02T08:40:56.770Z,23.70
2022-08-02T08:43:30.172Z,23.70
2022-08-02T08:45:58.910Z,23.90
2022-08-02T08:48:31.213Z,24.00
2022-08-02T08:51:06.140Z,24.10
2022-08-02T08:53:40.362Z,24.10
2022-08-02T08:56:14.092Z,24.20
2022-08-02T08:58:44.848Z,24.30
2022-08-02T09:01:16.797Z,24.40
2022-08-02T09:03:47.082Z,24.50
2022-08-02T09:06:16.946Z,24.60
2022-08-02T09:08:45.062Z,24.70
2022-08-02T09:11:17.705Z,24.70
2022-08-02T09:13:53.589Z,24.70
2022-08-02T09:16:30.361Z,24.80
2022-08-02T09:18:59.453Z,24.80
2022-08-02T09:21:38.321Z,24.80
2022-08-02T09:24:17.594Z,24.80
2022-08-02T09:26:46.067Z,24.90
2022-08-02T09:29:14.822Z,25.00
2022-08-02T09:31:49.359Z,25.00
2022-08-02T09:34:19.886Z,25.00
2022-08-02T09:36:54.375Z,25.20
2022-08-02T09:39:23.957Z,25.20
2022-08-02T09:41:52.126Z,25.20
2022-08-02T09:44:20.590Z,25.30
2022-08-02T09:46:48.597Z,25.10
2022-08-02T09:49:20.560Z,25.30
2022-08-02T09:51:54.262Z,25.30
2022-08-02T09:54:24.535Z,25.30
2022-08-02T09:56:54.862Z,25.50
2022-08-02T09:59:24.816Z,25.50
2022-08-02T10:02:01.829Z,25.60
2022-08-02T10:04:34.325Z,25.80
2022-08-02T10:07:24.001Z,26.00
2022-08-02T10:09:55.466Z,26.10
2022-08-02T10:12:24.796Z,26.30
2022-08-02T10:14:53.337Z,26.50
2022-08-02T10:17:22.656Z,26.60
2022-08-02T10:20:01.873Z,26.70
2022-08-02T10:22:34.810Z,26.80
2022-08-02T10:25:04.969Z,26.90
2022-08-02T10:27:49.305Z,26.80
2022-08-02T10:30:24.643Z,26.90
2022-08-02T10:32:59.368Z,27.20
2022-08-02T10:35:28.259Z,27.10
2022-08-02T10:38:03.855Z,27.30
2022-08-02T10:40:46.042Z,27.10
2022-08-02T10:43:15.222Z,27.00
2022-08-02T10:45:46.735Z,27.20
2022-08-02T10:48:17.070Z,27.50
2022-08-02T10:50:55.254Z,27.60
2022-08-02T10:53:29.749Z,27.70
2022-08-02T10:55:59.588Z,27.70
2022-08-02T10:58:30.454Z,27.70
2022-08-02T11:00:59.934Z,27.50
2022-08-02T11:03:42.471Z,27.70
2022-08-02T11:06:24.646Z,27.50
2022-08-02T11:09:32.876Z,27.50
2022-08-02T11:12:03.906Z,27.30
2022-08-02T11:14:33.612Z,27.20
2022-08-02T11:17:15.724Z,27.10
2022-08-02T11:20:18.753Z,27.10
2022-08-02T11:22:48.522Z,27.10
2022-08-02T11:26:02.584Z,27.30
2022-08-02T11:28:26.104Z,27.20
2022-08-02T11:31:02.623Z,27.00
2022-08-02T11:33:33.309Z,27.00
2022-08-02T11:36:06.924Z,27.10
2022-08-02T11:38:35.078Z,27.20
2022-08-02T11:41:09.626Z,27.30
2022-08-02T11:43:39.420Z,27.20
2022-08-02T11:46:14.424Z,27.50
2022-08-02T11:48:43.919Z,27.60
2022-08-02T11:51:14.694Z,27.90
2022-08-02T11:53:44.573Z,27.70
2022-08-02T11:56:21.652Z,27.60
2022-08-02T11:59:04.117Z,27.60
2022-08-02T12:01:36.886Z,27.70
2022-08-02T12:04:18.108Z,27.60
2022-08-02T12:06:54.867Z,27.80
2022-08-02T12:09:24.357Z,28.00
2022-08-02T12:11:53.833Z,28.10
2022-08-02T12:14:22.219Z,28.20
2022-08-02T12:17:08.055Z,28.20
2022-08-02T12:19:37.101Z,28.40
2022-08-02T12:22:10.883Z,28.20
2022-08-02T12:24:39.962Z,28.30
2022-08-02T12:27:10.461Z,28.30
2022-08-02T12:29:58.290Z,28.20
2022-08-02T12:32:27.763Z,28.10
2022-08-02T12:35:07.765Z,28.30
2022-08-02T12:37:37.096Z,28.40
2022-08-02T12:40:25.499Z,28.50
2022-08-02T12:42:58.563Z,28.40
2022-08-02T12:45:41.256Z,28.30
2022-08-02T12:48:10.953Z,28.30
2022-08-02T12:50:39.581Z,28.40
2022-08-02T12:53:09.884Z,28.50
2022-08-02T12:56:00.912Z,28.70
2022-08-02T12:58:47.311Z,28.60
2022-08-02T13:01:22.656Z,28.60
2022-08-02T13:04:11.803Z,28.50
2022-08-02T13:06:44.089Z,28.50
2022-08-02T13:09:14.983Z,28.30
2022-08-02T13:11:43.987Z,28.30
2022-08-02T13:14:15.349Z,28.20
2022-08-02T13:16:44.953Z,28.10
2022-08-02T13:19:15.524Z,28.20
2022-08-02T13:22:01.925Z,28.50
2022-08-02T13:24:40.991Z,28.70
2022-08-02T13:27:21.907Z,28.80
2022-08-02T13:29:52.255Z,29.00
2022-08-02T13:32:21.103Z,29.00
2022-08-02T13:34:49.026Z,28.90
2022-08-02T13:37:17.516Z,28.80
2022-08-02T13:40:05.566Z,28.90
2022-08-02T13:42:35.468Z,28.80
2022-08-02T13:45:12.067Z,28.70
2022-08-02T13:48:03.922Z,28.60
2022-08-02T13:50:31.432Z,28.70
2022-08-02T13:52:59.385Z,28.80
2022-08-02T13:55:28.167Z,28.60
2022-08-02T13:57:56.333Z,28.60
2022-08-02T14:00:35.429Z,28.70
2022-08-02T14:03:05.483Z,28.60
2022-08-02T14:05:39.476Z,28.40
2022-08-02T14:08:16.903Z,28.20
2022-08-02T14:10:45.506Z,28.30
2022-08-02T14:13:13.528Z,28.10
2022-08-02T14:15:43.022Z,28.00
2022-08-02T14:18:11.191Z,28.00
2022-08-02T14:20:39.088Z,27.80
2022-08-02T14:23:07.189Z,27.70
2022-08-02T14:25:35.326Z,27.80
2022-08-02T14:28:03.570Z,28.00
2022-08-02T14:30:31.763Z,28.00
2022-08-02T14:33:01.287Z,27.90
2022-08-02T14:35:29.278Z,28.10
2022-08-02T14:37:57.302Z,28.20
2022-08-02T14:40:30.709Z,28.30
2022-08-02T14:43:00.614Z,28.10
2022-08-02T14:45:39.809Z,28.00
2022-08-02T14:48:12.535Z,28.10
2022-08-02T14:50:41.020Z,28.10
2022-08-02T14:53:12.189Z,28.20
2022-08-02T14:55:41.966Z,28.30
2022-08-02T14:58:10.456Z,28.30
2022-08-02T15:00:40.892Z,28.40
2022-08-02T15:03:11.141Z,28.40
2022-08-02T15:05:39.136Z,28.30
2022-08-02T15:08:07.454Z,28.30
2022-08-02T15:10:35.454Z,28.30
2022-08-02T15:13:03.489Z,28.40
2022-08-02T15:15:31.474Z,28.60
2022-08-02T15:18:00.249Z,28.40
2022-08-02T15:20:29.877Z,28.20
2022-08-02T15:23:00.555Z,28.20
2022-08-02T15:25:28.510Z,28.20
2022-08-02T15:27:56.433Z,28.20
2022-08-02T15:30:24.545Z,28.20
2022-08-02T15:32:53.850Z,28.30
2022-08-02T15:35:21.988Z,28.40
2022-08-02T15:37:51.416Z,28.30
2022-08-02T15:40:19.558Z,28.00
2022-08-02T15:42:47.581Z,28.00
2022-08-02T15:45:15.966Z,28.10
2022-08-02T15:47:50.305Z,28.10
2022-08-02T15:50:19.437Z,28.00
2022-08-02T15:52:47.307Z,28.00
2022-08-02T15:55:16.971Z,28.00
2022-08-02T15:57:44.992Z,28.00
2022-08-02T16:00:18.096Z,28.00
2022-08-02T16:02:47.848Z,27.90
2022-08-02T16:05:17.811Z,27.90
2022-08-02T16:07:49.356Z,27.90
2022-08-02T16:10:19.151Z,27.80
2022-08-02T16:12:47.137Z,27.50
2022-08-02T16:15:15.194Z,27.40
2022-08-02T16:17:48.665Z,27.60
2022-08-02T16:20:23.009Z,27.80
2022-08-02T16:22:50.901Z,27.70
2022-08-02T16:25:20.417Z,27.70
2022-08-02T16:28:00.200Z,27.80
2022-08-02T16:30:35.930Z,27.80
2022-08-02T16:33:04.117Z,27.50
2022-08-02T16:35:32.203Z,27.50
2022-08-02T16:38:02.238Z,27.60
2022-08-02T16:40:34.248Z,27.70
2022-08-02T16:43:02.901Z,27.80
2022-08-02T16:45:37.114Z,27.90
2022-08-02T16:48:06.949Z,27.80
2022-08-02T16:50:37.861Z,27.90
2022-08-02T16:53:07.959Z,27.70
2022-08-02T16:55:37.939Z,27.80
2022-08-02T16:58:09.746Z,27.70
2022-08-02T17:00:37.955Z,27.70
2022-08-02T17:03:13.329Z,27.70
2022-08-02T17:05:56.362Z,27.70
2022-08-02T17:08:31.776Z,27.70
2022-08-02T17:11:03.547Z,27.70
2022-08-02T17:13:32.293Z,27.80
2022-08-02T17:16:20.645Z,27.90
2022-08-02T17:18:50.441Z,27.90
2022-08-02T17:21:18.526Z,27.90
2022-08-02T17:24:02.778Z,27.90
2022-08-02T17:26:37.489Z,27.90
2022-08-02T17:29:16.425Z,28.00
2022-08-02T17:32:05.816Z,28.00
2022-08-02T17:34:34.767Z,28.10
2022-08-02T17:37:05.633Z,27.90
2022-08-02T17:39:44.225Z,27.80
2022-08-02T17:42:23.596Z,27.80
2022-08-02T17:44:52.075Z,27.80
2022-08-02T17:47:20.437Z,27.70
2022-08-02T17:49:50.001Z,27.70
2022-08-02T17:52:50.472Z,27.60
2022-08-02T17:55:14.550Z,27.60
2022-08-02T17:57:57.193Z,27.60
2022-08-02T18:03:20.774Z,27.40
2022-08-02T18:05:55.042Z,27.30
2022-08-02T18:08:24.222Z,27.10
2022-08-02T18:10:55.881Z,27.00
2022-08-02T18:13:26.113Z,26.90
2022-08-02T18:16:01.365Z,26.80
2022-08-02T18:18:30.437Z,26.90
2022-08-02T18:21:15.953Z,26.80
2022-08-02T18:23:48.600Z,26.70
2022-08-02T18:26:17.948Z,26.70
2022-08-02T18:28:53.018Z,26.60
2022-08-02T18:31:22.788Z,26.30
2022-08-02T18:34:01.509Z,26.20
2022-08-02T18:36:31.565Z,26.10
2022-08-02T18:39:00.368Z,26.10
2022-08-02T18:41:38.818Z,26.20
2022-08-02T18:44:10.783Z,26.10
2022-08-02T18:46:44.155Z,25.90
2022-08-02T18:49:15.084Z,25.90
2022-08-02T18:51:43.711Z,25.80
2022-08-02T18:54:11.780Z,25.80
2022-08-02T18:56:40.142Z,25.70
2022-08-02T18:59:10.653Z,25.60
2022-08-02T19:01:46.804Z,25.50
2022-08-02T19:04:27.516Z,25.20
2022-08-02T19:07:07.427Z,25.10
2022-08-02T19:09:40.038Z,24.90
2022-08-02T19:12:13.105Z,24.70
2022-08-02T19:14:42.579Z,24.70
2022-08-02T19:17:54.243Z,24.60
2022-08-02T19:19:58.761Z,24.50
2022-08-02T19:22:29.924Z,24.60
2022-08-02T19:25:01.248Z,24.60
2022-08-02T19:27:32.727Z,24.50
2022-08-02T19:30:04.106Z,24.30
2022-08-02T19:32:40.493Z,24.30
2022-08-02T19:35:19.251Z,24.20
2022-08-02T19:38:06.363Z,24.30
2022-08-02T19:40:34.517Z,24.00
2022-08-02T19:44:21.604Z,23.90
2022-08-02T19:45:57.633Z,24.10
2022-08-02T19:48:27.056Z,23.80
2022-08-02T19:50:59.538Z,23.80
2022-08-02T19:56:25.766Z,23.80
2022-08-02T19:58:55.685Z,23.60
2022-08-02T20:01:36.891Z,23.50
2022-08-02T20:04:06.992Z,23.40
2022-08-02T20:06:35.100Z,23.30
2022-08-02T20:09:04.964Z,23.30
2022-08-02T20:11:35.057Z,23.20
2022-08-02T20:14:07.070Z,23.20
2022-08-02T20:16:39.411Z,23.20
2022-08-02T20:19:09.642Z,23.20
2022-08-02T20:21:42.037Z,23.10
2022-08-02T20:24:13.576Z,23.10
2022-08-02T20:26:47.019Z,23.00
2022-08-02T20:29:43.156Z,23.10
2022-08-02T20:32:08.030Z,23.00
2022-08-02T20:34:36.584Z,23.00
2022-08-02T20:38:00.171Z,23.00
2022-08-02T20:39:55.277Z,23.00
2022-08-02T20:42:26.999Z,23.00
2022-08-02T20:44:57.584Z,22.90
2022-08-02T20:47:38.866Z,22.80
2022-08-02T20:50:31.453Z,22.80
2022-08-02T20:53:00.098Z,22.80
2022-08-02T20:55:31.641Z,22.80
2022-08-02T20:58:02.121Z,22.70
2022-08-02T21:00:49.426Z,22.70
2022-08-02T21:03:21.446Z,22.70
2022-08-02T21:05:55.846Z,22.60
2022-08-02T21:08:24.592Z,22.60
2022-08-02T21:10:53.400Z,22.60
2022-08-02T21:13:26.121Z,22.60
2022-08-02T21:15:56.552Z,22.60
2022-08-02T21:18:44.476Z,22.60
2022-08-02T21:21:14.777Z,22.50
2022-08-02T21:26:32.931Z,22.50
2022-08-02T21:29:03.919Z,22.50
2022-08-02T21:31:35.518Z,22.40
2022-08-02T21:34:19.221Z,22.50
2022-08-02T21:36:50.805Z,22.50
2022-08-02T21:39:19.219Z,22.50
2022-08-02T21:41:48.760Z,22.30
2022-08-02T21:44:17.970Z,22.40
2022-08-02T21:46:49.413Z,22.40
2022-08-02T21:49:20.210Z,22.30
2022-08-02T21:51:49.652Z,22.30
2022-08-02T21:54:20.227Z,22.30
2022-08-02T21:56:52.024Z,22.30
2022-08-02T21:59:26.182Z,22.30
2022-08-02T22:01:56.936Z,22.30
2022-08-02T22:04:47.604Z,22.20
2022-08-02T22:07:17.189Z,22.20
2022-08-02T22:09:45.820Z,22.20
2022-08-02T22:12:17.555Z,22.20
2022-08-02T22:14:54.751Z,22.20
2022-08-02T22:17:50.485Z,22.10
2022-08-02T22:20:19.842Z,22.10
2022-08-02T22:22:50.370Z,22.10
2022-08-02T22:25:26.599Z,22.10
2022-08-02T22:28:38.756Z,22.10
2022-08-02T22:30:52.880Z,22.10
2022-08-02T22:33:42.453Z,22.00
2022-08-02T22:36:17.277Z,22.00
2022-08-02T22:38:46.113Z,22.00
2022-08-02T22:41:14.900Z,22.00
2022-08-02T22:43:43.340Z,22.00
2022-08-02T22:46:15.459Z,22.00
2022-08-02T22:48:45.367Z,22.00
2022-08-02T22:51:14.113Z,22.00
2022-08-02T22:53:45.602Z,22.00
2022-08-02T22:56:15.416Z,22.00
2022-08-02T22:58:49.822Z,27.50
2022-08-02T22:59:05.946Z,23.70
2022-08-02T22:59:12.142Z,22.50
2022-08-02T23:01:32.039Z,22.00
2022-08-02T23:04:00.267Z,22.00
2022-08-02T23:06:28.201Z,22.00
2022-08-02T23:08:57.740Z,22.00
2022-08-02T23:11:25.841Z,22.00
2022-08-02T23:13:53.829Z,22.00
2022-08-02T23:16:39.593Z,22.10
2022-08-02T23:19:25.010Z,22.10
2022-08-02T23:22:01.667Z,22.10
2022-08-02T23:24:33.891Z,22.10
2022-08-02T23:27:02.105Z,22.10
2022-08-02T23:29:30.099Z,22.00
2022-08-02T23:31:58.977Z,22.00
2022-08-02T23:34:27.403Z,22.00
2022-08-02T23:36:55.305Z,22.00
2022-08-02T23:39:23.456Z,22.00
2022-08-02T23:41:54.790Z,22.00
2022-08-02T23:44:23.610Z,22.00
2022-08-02T23:46:52.172Z,21.90
2022-08-02T23:49:20.573Z,21.90
2022-08-02T23:51:49.024Z,21.90
2022-08-02T23:54:17.854Z,22.00
2022-08-02T23:56:46.128Z,22.00
2022-08-02T23:59:16.139Z,21.90
